createdAt,value
2023-04-14T00:01:33.040Z,4.60
2023-04-14T00:04:01.907Z,4.80
2023-04-14T00:06:30.940Z,5.20
2023-04-14T00:09:00.549Z,4.70
2023-04-14T00:11:28.756Z,4.40
2023-04-14T00:13:57.537Z,4.40
2023-04-14T00:16:30.291Z,4.50
2023-04-14T00:18:58.985Z,4.80
2023-04-14T00:21:27.139Z,5.10
2023-04-14T00:23:56.855Z,4.70
2023-04-14T00:26:24.947Z,4.80
2023-04-14T00:28:52.978Z,5.50
2023-04-14T00:31:21.119Z,4.50
2023-04-14T00:33:50.060Z,6.50
2023-04-14T00:36:18.088Z,5.00
2023-04-14T00:38:46.431Z,4.50
2023-04-14T00:41:14.584Z,4.60
2023-04-14T00:43:44.038Z,5.60
2023-04-14T00:46:14.651Z,5.20
2023-04-14T00:48:42.664Z,4.60
2023-04-14T00:51:11.113Z,5.20
2023-04-14T00:53:42.138Z,4.50
2023-04-14T00:56:10.550Z,4.70
2023-04-14T00:58:41.071Z,5.20
2023-04-14T01:01:09.079Z,4.70
2023-04-14T01:03:38.587Z,5.30
2023-04-14T01:06:10.197Z,4.60
2023-04-14T01:08:38.370Z,4.90
2023-04-14T01:11:27.794Z,4.80
2023-04-14T01:14:09.136Z,4.90
2023-04-14T01:16:40.923Z,5.00
2023-04-14T01:19:18.923Z,5.40
2023-04-14T01:21:47.678Z,5.20
2023-04-14T01:24:42.009Z,6.00
2023-04-14T01:27:13.205Z,5.60
2023-04-14T01:29:49.734Z,6.70
2023-04-14T01:32:20.588Z,5.90
2023-04-14T01:34:54.106Z,6.10
2023-04-14T01:40:02.840Z,6.20
2023-04-14T01:45:26.176Z,6.20
2023-04-14T01:47:54.663Z,5.20
2023-04-14T01:50:22.893Z,5.20
2023-04-14T01:52:54.341Z,5.80
2023-04-14T01:55:23.886Z,5.40
2023-04-14T01:57:56.021Z,5.60
2023-04-14T02:00:24.982Z,5.40
2023-04-14T02:02:53.990Z,5.20
2023-04-14T02:05:24.355Z,6.20
2023-04-14T02:07:53.387Z,6.50
2023-04-14T02:10:21.938Z,6.20
2023-04-14T02:12:53.751Z,5.90
2023-04-14T02:15:41.597Z,6.50
2023-04-14T02:18:10.377Z,5.10
2023-04-14T02:20:43.697Z,6.20
2023-04-14T02:23:30.806Z,5.70
2023-04-14T02:26:11.096Z,7.20
2023-04-14T02:28:49.245Z,6.40
2023-04-14T02:31:21.554Z,6.10
2023-04-14T02:33:52.893Z,6.10
2023-04-14T02:36:23.837Z,6.10
2023-04-14T02:39:03.298Z,5.70
2023-04-14T02:41:33.131Z,6.00
2023-04-14T02:44:07.429Z,6.50
2023-04-14T02:46:42.003Z,6.40
2023-04-14T02:49:11.711Z,6.30
2023-04-14T02:51:41.188Z,6.70
2023-04-14T02:54:09.512Z,5.80
2023-04-14T02:56:47.041Z,6.80
2023-04-14T02:59:15.204Z,6.60
2023-04-14T03:02:02.408Z,6.20
2023-04-14T03:04:35.472Z,6.30
2023-04-14T03:07:05.818Z,6.90
2023-04-14T03:09:33.979Z,6.50
2023-04-14T03:12:03.523Z,7.40
2023-04-14T03:14:32.476Z,7.40
2023-04-14T03:17:01.020Z,7.80
2023-04-14T03:19:29.606Z,7.00
2023-04-14T03:22:00.245Z,6.50
2023-04-14T03:24:31.269Z,6.60
2023-04-14T03:27:02.470Z,7.40
2023-04-14T03:29:40.511Z,7.00
2023-04-14T03:32:12.945Z,6.90
2023-04-14T03:34:42.147Z,7.30
2023-04-14T03:37:10.416Z,6.60
2023-04-14T03:39:43.585Z,7.00
2023-04-14T03:42:12.541Z,7.70
2023-04-14T03:44:44.725Z,7.40
2023-04-14T03:47:16.684Z,7.30
2023-04-14T03:49:48.172Z,7.70
2023-04-14T03:52:21.100Z,7.70
2023-04-14T03:54:49.500Z,7.50
2023-04-14T03:57:19.419Z,8.00
2023-04-14T03:59:48.399Z,8.10
2023-04-14T04:02:17.287Z,7.80
2023-04-14T04:04:45.710Z,8.10
2023-04-14T04:07:16.008Z,9.50
2023-04-14T04:09:46.653Z,8.40
2023-04-14T04:12:14.593Z,8.20
2023-04-14T04:14:44.869Z,7.80
2023-04-14T04:17:15.678Z,8.10
2023-04-14T04:19:44.043Z,7.90
2023-04-14T04:22:14.923Z,9.10
2023-04-14T04:24:43.150Z,9.10
2023-04-14T04:27:27.065Z,9.40
2023-04-14T04:29:56.513Z,8.70
2023-04-14T04:32:25.367Z,8.60
2023-04-14T04:34:55.820Z,8.40
2023-04-14T04:37:28.480Z,9.60
2023-04-14T04:39:58.412Z,9.90
2023-04-14T04:42:27.099Z,9.10
2023-04-14T04:44:56.716Z,9.70
2023-04-14T04:47:25.022Z,8.80
2023-04-14T04:49:53.385Z,8.60
2023-04-14T04:52:22.098Z,8.00
2023-04-14T04:54:52.619Z,8.10
2023-04-14T04:57:21.164Z,9.20
2023-04-14T04:59:49.423Z,9.50
2023-04-14T05:02:19.078Z,9.30
2023-04-14T05:04:48.994Z,8.90
2023-04-14T05:07:18.096Z,8.30
2023-04-14T05:09:53.248Z,9.00
2023-04-14T05:12:21.441Z,9.70
2023-04-14T05:14:49.767Z,9.10
2023-04-14T05:17:24.222Z,10.20
2023-04-14T05:19:52.220Z,10.20
2023-04-14T05:22:20.565Z,9.80
2023-04-14T05:24:50.586Z,10.70
2023-04-14T05:27:19.358Z,9.70
2023-04-14T05:29:47.625Z,9.50
2023-04-14T05:32:18.307Z,10.60
2023-04-14T05:34:46.655Z,9.70
2023-04-14T05:37:15.196Z,10.40
2023-04-14T05:39:45.423Z,10.20
2023-04-14T05:42:13.831Z,9.70
2023-04-14T05:44:42.201Z,10.70
2023-04-14T05:47:10.501Z,9.50
2023-04-14T05:49:41.016Z,10.30
2023-04-14T05:52:11.656Z,10.50
2023-04-14T05:54:40.898Z,9.90
2023-04-14T05:57:11.056Z,10.40
2023-04-14T05:59:41.384Z,10.10
2023-04-14T06:02:09.540Z,11.10
2023-04-14T06:04:38.157Z,10.70
2023-04-14T06:07:06.376Z,10.10
2023-04-14T06:09:34.598Z,10.30
2023-04-14T06:12:09.493Z,9.90
2023-04-14T06:14:37.835Z,11.20
2023-04-14T06:17:10.072Z,10.80
2023-04-14T06:19:39.293Z,10.60
2023-04-14T06:22:08.612Z,10.70
2023-04-14T06:24:36.641Z,10.30
2023-04-14T06:27:05.479Z,11.10
2023-04-14T06:29:33.405Z,10.70
2023-04-14T06:32:02.462Z,10.20
2023-04-14T06:34:35.524Z,11.40
2023-04-14T06:37:04.486Z,10.70
2023-04-14T06:39:32.593Z,10.10
2023-04-14T06:42:01.050Z,10.90
2023-04-14T06:44:29.601Z,10.70
2023-04-14T06:46:57.849Z,9.40
2023-04-14T06:49:27.619Z,10.10
2023-04-14T06:51:56.245Z,10.30
2023-04-14T06:54:26.515Z,11.90
2023-04-14T06:56:54.595Z,10.50
2023-04-14T06:59:28.023Z,10.40
2023-04-14T07:01:58.799Z,10.20
2023-04-14T07:04:26.982Z,9.30
2023-04-14T07:07:02.937Z,10.20
2023-04-14T07:09:32.861Z,10.50
2023-04-14T07:12:01.665Z,11.40
2023-04-14T07:14:33.953Z,9.60
2023-04-14T07:17:02.211Z,9.30
2023-04-14T07:19:30.268Z,9.70
2023-04-14T07:21:58.311Z,9.40
2023-04-14T07:24:27.161Z,9.40
2023-04-14T07:26:58.504Z,10.60
2023-04-14T07:29:27.401Z,10.20
2023-04-14T07:31:59.138Z,10.20
2023-04-14T07:34:28.133Z,9.80
2023-04-14T07:36:58.647Z,10.60
2023-04-14T07:39:26.821Z,10.70
2023-04-14T07:41:57.781Z,9.70
2023-04-14T07:44:33.912Z,9.90
2023-04-14T07:47:02.007Z,10.00
2023-04-14T07:49:30.141Z,9.70
2023-04-14T07:51:58.410Z,9.30
2023-04-14T07:54:26.511Z,9.70
2023-04-14T07:56:54.900Z,10.40
2023-04-14T07:59:22.946Z,9.80
2023-04-14T08:01:51.415Z,11.40
2023-04-14T08:04:19.820Z,9.40
2023-04-14T08:09:22.284Z,11.30
2023-04-14T08:11:50.338Z,11.10
2023-04-14T08:14:18.276Z,10.90
2023-04-14T08:16:54.741Z,11.80
2023-04-14T08:19:23.171Z,10.80
2023-04-14T08:21:52.247Z,10.80
2023-04-14T08:24:20.585Z,10.40
2023-04-14T08:26:48.718Z,9.70
2023-04-14T08:29:19.407Z,10.60
2023-04-14T08:31:51.791Z,10.40
2023-04-14T08:34:21.230Z,12.50
2023-04-14T08:36:56.845Z,10.70
2023-04-14T08:39:31.835Z,10.90
2023-04-14T08:42:00.584Z,10.40
2023-04-14T08:44:29.355Z,11.20
2023-04-14T08:46:58.282Z,11.20
2023-04-14T08:49:33.442Z,10.80
2023-04-14T08:52:03.205Z,11.40
2023-04-14T08:54:31.743Z,11.10
2023-04-14T08:56:59.865Z,11.30
2023-04-14T08:59:31.139Z,11.20
2023-04-14T09:01:59.806Z,12.10
2023-04-14T09:04:28.772Z,11.20
2023-04-14T09:06:56.894Z,10.30
2023-04-14T09:09:31.924Z,11.40
2023-04-14T09:12:01.334Z,12.30
2023-04-14T09:14:30.343Z,12.90
2023-04-14T09:17:02.431Z,13.00
2023-04-14T09:19:32.180Z,12.50
2023-04-14T09:22:00.514Z,11.60
2023-04-14T09:24:32.260Z,11.90
2023-04-14T09:27:07.444Z,12.30
2023-04-14T09:29:39.148Z,12.50
2023-04-14T09:32:13.858Z,11.90
2023-04-14T09:34:56.497Z,12.00
2023-04-14T09:37:26.305Z,12.30
2023-04-14T09:39:55.778Z,12.50
2023-04-14T09:42:41.143Z,11.50
2023-04-14T09:45:12.253Z,13.50
2023-04-14T09:47:41.292Z,12.80
2023-04-14T09:50:10.282Z,12.10
2023-04-14T09:52:40.041Z,12.20
2023-04-14T09:55:13.133Z,11.90
2023-04-14T09:57:41.748Z,12.30
2023-04-14T10:00:18.259Z,11.80
2023-04-14T10:03:09.760Z,12.70
2023-04-14T10:05:41.581Z,12.80
2023-04-14T10:08:10.309Z,13.40
2023-04-14T10:10:38.690Z,13.50
2023-04-14T10:13:07.826Z,12.00
2023-04-14T10:15:37.814Z,11.90
2023-04-14T10:18:06.557Z,11.10
2023-04-14T10:20:38.122Z,11.10
2023-04-14T10:23:07.264Z,12.00
2023-04-14T10:25:35.494Z,10.80
2023-04-14T10:28:05.898Z,12.00
2023-04-14T10:30:35.615Z,12.30
2023-04-14T10:33:06.349Z,13.90
2023-04-14T10:35:41.040Z,13.10
2023-04-14T10:38:09.292Z,12.50
2023-04-14T10:40:52.015Z,11.30
2023-04-14T10:43:21.588Z,12.40
2023-04-14T10:45:54.435Z,14.00
2023-04-14T10:48:33.468Z,14.50
2023-04-14T10:51:03.166Z,15.50
2023-04-14T10:53:47.539Z,15.50
2023-04-14T10:56:15.635Z,16.50
2023-04-14T10:58:58.419Z,15.80
2023-04-14T11:01:32.895Z,15.60
2023-04-14T11:04:20.420Z,15.40
2023-04-14T11:06:53.616Z,14.10
2023-04-14T11:09:27.670Z,13.80
2023-04-14T11:11:56.783Z,14.40
2023-04-14T11:14:27.828Z,19.60
2023-04-14T11:17:04.760Z,17.30
2023-04-14T11:19:33.565Z,17.30
2023-04-14T11:22:01.663Z,15.00
2023-04-14T11:24:30.135Z,13.00
2023-04-14T11:26:58.735Z,13.10
2023-04-14T11:29:30.602Z,13.20
2023-04-14T11:32:04.213Z,11.00
2023-04-14T11:34:33.564Z,11.70
2023-04-14T11:37:02.387Z,10.90
2023-04-14T11:39:30.943Z,12.00
2023-04-14T11:42:02.815Z,11.50
2023-04-14T11:44:32.012Z,11.70
2023-04-14T11:47:00.890Z,13.00
2023-04-14T11:49:35.557Z,12.50
2023-04-14T11:52:07.805Z,11.90
2023-04-14T11:54:37.993Z,12.30
2023-04-14T11:57:12.973Z,12.00
2023-04-14T11:59:43.867Z,11.50
2023-04-14T12:02:22.013Z,11.30
2023-04-14T12:04:51.706Z,11.50
2023-04-14T12:07:20.274Z,10.70
2023-04-14T12:09:57.945Z,9.70
2023-04-14T12:12:29.142Z,9.60
2023-04-14T12:14:57.718Z,10.00
2023-04-14T12:17:33.765Z,10.20
2023-04-14T12:20:05.608Z,12.70
2023-04-14T12:22:34.538Z,10.60
2023-04-14T12:25:12.947Z,10.60
2023-04-14T12:27:42.218Z,12.10
2023-04-14T12:30:11.080Z,10.40
2023-04-14T12:32:40.902Z,10.10
2023-04-14T12:35:09.585Z,9.40
2023-04-14T12:37:38.810Z,9.60
2023-04-14T12:40:12.471Z,10.40
2023-04-14T12:42:49.246Z,10.40
2023-04-14T12:45:17.399Z,9.00
2023-04-14T12:47:55.605Z,9.70
2023-04-14T12:50:30.440Z,10.20
2023-04-14T12:53:00.116Z,10.80
2023-04-14T12:55:31.824Z,9.90
2023-04-14T12:58:00.116Z,9.90
2023-04-14T13:00:28.384Z,9.30
2023-04-14T13:02:57.744Z,9.20
2023-04-14T13:05:31.554Z,9.20
2023-04-14T13:07:59.776Z,11.30
2023-04-14T13:10:28.621Z,9.90
2023-04-14T13:12:56.691Z,10.50
2023-04-14T13:16:10.602Z,9.40
2023-04-14T13:18:13.100Z,9.00
2023-04-14T13:20:41.398Z,10.40
2023-04-14T13:23:09.630Z,9.70
2023-04-14T13:25:38.177Z,10.60
2023-04-14T13:28:09.350Z,11.60
2023-04-14T13:30:41.406Z,9.70
2023-04-14T13:33:09.769Z,10.70
2023-04-14T13:35:37.904Z,10.00
2023-04-14T13:38:06.658Z,10.20
2023-04-14T13:40:34.789Z,12.10
2023-04-14T13:43:05.644Z,10.20
2023-04-14T13:45:34.203Z,11.00
2023-04-14T13:48:02.817Z,11.60
2023-04-14T13:50:34.022Z,12.30
2023-04-14T13:53:02.074Z,10.50
2023-04-14T13:55:32.672Z,11.40
2023-04-14T13:58:00.865Z,12.40
2023-04-14T14:00:29.196Z,10.10
2023-04-14T14:02:59.226Z,10.90
2023-04-14T14:05:27.844Z,10.00
2023-04-14T14:07:56.477Z,9.90
2023-04-14T14:10:26.339Z,10.70
2023-04-14T14:12:54.585Z,10.30
2023-04-14T14:15:23.691Z,9.70
2023-04-14T14:17:57.392Z,9.60
2023-04-14T14:20:25.870Z,9.30
2023-04-14T14:22:54.113Z,10.00
2023-04-14T14:25:25.913Z,10.10
2023-04-14T14:27:55.620Z,10.00
2023-04-14T14:30:24.082Z,9.40
2023-04-14T14:32:56.767Z,9.50
2023-04-14T14:35:25.049Z,10.10
2023-04-14T14:37:55.243Z,9.70
2023-04-14T14:40:23.244Z,10.00
2023-04-14T14:42:52.025Z,11.00
2023-04-14T14:45:25.180Z,9.80
2023-04-14T14:47:59.875Z,9.70
2023-04-14T14:50:28.121Z,9.00
2023-04-14T14:52:58.965Z,9.30
2023-04-14T14:55:27.332Z,10.80
2023-04-14T14:57:55.858Z,9.90
2023-04-14T15:00:24.497Z,9.50
2023-04-14T15:03:10.106Z,9.30
2023-04-14T15:05:38.532Z,10.10
2023-04-14T15:08:07.447Z,10.00
2023-04-14T15:10:44.100Z,9.10
2023-04-14T15:13:13.341Z,8.90
2023-04-14T15:15:41.306Z,9.20
2023-04-14T15:18:13.715Z,9.30
2023-04-14T15:20:42.568Z,9.70
2023-04-14T15:23:13.581Z,10.10
2023-04-14T15:25:44.463Z,9.90
2023-04-14T15:28:13.055Z,8.80
2023-04-14T15:30:44.063Z,8.90
2023-04-14T15:33:15.332Z,9.60
2023-04-14T15:35:51.621Z,10.20
2023-04-14T15:38:21.007Z,10.40
2023-04-14T15:40:48.944Z,9.80
2023-04-14T15:43:18.524Z,11.00
2023-04-14T15:45:46.557Z,9.50
2023-04-14T15:48:14.867Z,9.20
2023-04-14T15:50:45.904Z,9.40
2023-04-14T15:53:14.706Z,8.50
2023-04-14T15:55:44.399Z,8.80
2023-04-14T15:58:12.652Z,8.00
2023-04-14T16:00:40.810Z,8.60
2023-04-14T16:03:09.583Z,8.70
2023-04-14T16:05:44.414Z,7.90
2023-04-14T16:08:14.693Z,8.60
2023-04-14T16:10:42.945Z,8.60
2023-04-14T16:13:23.953Z,7.20
2023-04-14T16:15:52.523Z,6.70
2023-04-14T16:18:20.830Z,7.20
2023-04-14T16:20:50.264Z,8.20
2023-04-14T16:23:18.419Z,7.10
2023-04-14T16:25:49.849Z,7.40
2023-04-14T16:28:18.711Z,7.20
2023-04-14T16:30:46.728Z,7.40
2023-04-14T16:33:24.640Z,7.90
2023-04-14T16:35:52.976Z,9.10
2023-04-14T16:38:21.702Z,7.50
2023-04-14T16:40:57.456Z,8.00
2023-04-14T16:43:27.112Z,7.60
2023-04-14T16:46:07.096Z,8.00
2023-04-14T16:48:37.141Z,7.50
2023-04-14T16:51:10.110Z,6.70
2023-04-14T16:53:40.430Z,8.40
2023-04-14T16:56:11.099Z,8.90
2023-04-14T16:58:45.368Z,7.80
2023-04-14T17:01:13.758Z,7.60
2023-04-14T17:03:42.643Z,7.90
2023-04-14T17:06:12.959Z,8.20
2023-04-14T17:08:41.996Z,7.80
2023-04-14T17:11:10.314Z,7.70
2023-04-14T17:13:38.459Z,7.80
2023-04-14T17:16:12.007Z,7.20
2023-04-14T17:18:43.678Z,6.80
2023-04-14T17:21:11.900Z,6.90
2023-04-14T17:23:49.389Z,6.70
2023-04-14T17:26:17.849Z,6.40
2023-04-14T17:28:46.372Z,6.70
2023-04-14T17:31:17.765Z,7.60
2023-04-14T17:33:47.324Z,6.40
2023-04-14T17:36:16.721Z,7.60
2023-04-14T17:38:45.997Z,6.50
2023-04-14T17:41:14.517Z,7.00
2023-04-14T17:43:48.724Z,6.50
2023-04-14T17:46:17.716Z,6.80
2023-04-14T17:48:46.515Z,7.40
2023-04-14T17:51:17.460Z,7.10
2023-04-14T17:53:47.819Z,7.30
2023-04-14T17:56:20.493Z,7.00
2023-04-14T17:58:51.911Z,7.40
2023-04-14T18:01:19.954Z,6.70
2023-04-14T18:03:49.298Z,6.50
2023-04-14T18:06:17.552Z,6.70
2023-04-14T18:08:47.099Z,6.90
2023-04-14T18:11:15.644Z,6.50
2023-04-14T18:13:43.807Z,5.90
2023-04-14T18:16:12.421Z,6.60
2023-04-14T18:21:17.421Z,5.90
2023-04-14T18:23:45.539Z,6.40
2023-04-14T18:28:53.136Z,7.00
2023-04-14T18:31:23.745Z,7.30
2023-04-14T18:34:13.248Z,7.30
2023-04-14T18:36:42.171Z,7.50
2023-04-14T18:39:10.119Z,7.10
2023-04-14T18:41:42.598Z,7.00
2023-04-14T18:44:13.170Z,6.70
2023-04-14T18:46:41.823Z,6.20
2023-04-14T18:49:13.632Z,7.00
2023-04-14T18:51:42.298Z,7.30
2023-04-14T18:54:10.747Z,8.00
2023-04-14T18:56:39.482Z,7.10
2023-04-14T18:59:07.815Z,6.80
2023-04-14T19:01:39.489Z,6.50
2023-04-14T19:04:08.199Z,7.80
2023-04-14T19:06:36.751Z,6.70
2023-04-14T19:09:05.154Z,6.70
2023-04-14T19:11:44.313Z,7.10
2023-04-14T19:14:12.819Z,6.80
2023-04-14T19:16:40.806Z,6.10
2023-04-14T19:19:08.809Z,5.90
2023-04-14T19:21:41.432Z,7.00
2023-04-14T19:24:09.410Z,7.40
2023-04-14T19:26:40.737Z,6.60
2023-04-14T19:29:10.513Z,6.50
2023-04-14T19:31:39.481Z,5.90
2023-04-14T19:34:07.744Z,6.70
2023-04-14T19:36:36.117Z,7.20
2023-04-14T19:39:05.247Z,6.30
2023-04-14T19:41:34.624Z,6.30
2023-04-14T19:44:06.602Z,5.80
2023-04-14T19:46:36.449Z,6.00
2023-04-14T19:49:07.787Z,5.40
2023-04-14T19:51:36.703Z,6.40
2023-04-14T19:54:09.455Z,5.70
2023-04-14T19:56:38.333Z,5.80
2023-04-14T19:59:06.320Z,5.60
2023-04-14T20:01:34.655Z,5.10
2023-04-14T20:04:06.507Z,5.80
2023-04-14T20:06:43.378Z,5.60
2023-04-14T20:09:12.106Z,5.10
2023-04-14T20:11:40.141Z,5.60
2023-04-14T20:14:08.170Z,5.90
2023-04-14T20:16:40.887Z,5.80
2023-04-14T20:19:09.388Z,6.60
2023-04-14T20:21:39.848Z,5.50
2023-04-14T20:24:08.013Z,5.60
2023-04-14T20:26:42.777Z,5.70
2023-04-14T20:29:12.183Z,5.80
2023-04-14T20:31:41.779Z,5.30
2023-04-14T20:34:12.830Z,5.40
2023-04-14T20:36:41.093Z,5.00
2023-04-14T20:39:09.755Z,5.40
2023-04-14T20:41:40.717Z,5.60
2023-04-14T20:44:09.702Z,5.30
2023-04-14T20:46:38.817Z,5.90
2023-04-14T20:49:14.154Z,5.80
2023-04-14T20:51:45.144Z,5.40
2023-04-14T20:54:13.239Z,5.50
2023-04-14T20:56:48.554Z,6.00
2023-04-14T20:59:19.407Z,6.20
2023-04-14T21:01:48.801Z,6.10
2023-04-14T21:04:17.891Z,6.00
2023-04-14T21:06:46.448Z,5.70
2023-04-14T21:09:14.786Z,5.60
2023-04-14T21:11:43.213Z,5.10
2023-04-14T21:15:38.630Z,4.90
2023-04-14T21:16:59.922Z,5.10
2023-04-14T21:19:28.509Z,5.00
2023-04-14T21:22:02.170Z,4.90
2023-04-14T21:24:30.483Z,4.50
2023-04-14T21:26:58.521Z,5.50
2023-04-14T21:29:28.351Z,5.80
2023-04-14T21:31:58.909Z,6.90
2023-04-14T21:34:27.474Z,5.20
2023-04-14T21:36:57.573Z,5.60
2023-04-14T21:39:28.502Z,4.80
2023-04-14T21:41:59.323Z,5.20
2023-04-14T21:44:27.651Z,4.50
2023-04-14T21:46:55.703Z,5.10
2023-04-14T21:49:26.425Z,4.30
2023-04-14T21:51:54.525Z,4.00
2023-04-14T21:54:22.453Z,3.90
2023-04-14T21:56:53.258Z,4.10
2023-04-14T21:59:22.112Z,4.40
2023-04-14T22:01:50.581Z,4.30
2023-04-14T22:04:33.051Z,4.80
2023-04-14T22:07:05.345Z,4.30
2023-04-14T22:09:36.426Z,4.50
2023-04-14T22:12:05.115Z,4.40
2023-04-14T22:14:33.708Z,4.50
2023-04-14T22:17:04.539Z,4.10
2023-04-14T22:19:34.244Z,4.10
2023-04-14T22:22:02.440Z,4.70
2023-04-14T22:24:30.789Z,4.50
2023-04-14T22:27:02.314Z,4.40
2023-04-14T22:29:30.425Z,4.80
2023-04-14T22:31:58.882Z,4.50
2023-04-14T22:34:29.014Z,4.50
2023-04-14T22:36:58.320Z,4.40
2023-04-14T22:39:29.344Z,4.50
2023-04-14T22:41:59.862Z,4.40
2023-04-14T22:44:28.063Z,4.60
2023-04-14T22:46:56.382Z,5.30
2023-04-14T22:49:25.348Z,4.60
2023-04-14T22:51:53.382Z,5.50
2023-04-14T22:54:23.428Z,4.40
2023-04-14T22:56:52.322Z,4.80
2023-04-14T22:59:20.330Z,5.70
2023-04-14T23:01:51.547Z,5.40
2023-04-14T23:04:21.897Z,5.30
2023-04-14T23:06:52.379Z,5.70
2023-04-14T23:09:21.215Z,4.70
2023-04-14T23:11:49.556Z,5.10
2023-04-14T23:14:17.842Z,4.90
2023-04-14T23:16:47.237Z,5.70
2023-04-14T23:19:16.689Z,5.70
2023-04-14T23:21:45.545Z,6.50
2023-04-14T23:24:16.040Z,6.40
2023-04-14T23:26:47.245Z,6.00
2023-04-14T23:29:15.699Z,5.70
2023-04-14T23:31:46.117Z,5.60
2023-04-14T23:34:14.441Z,5.80
2023-04-14T23:36:46.054Z,5.70
2023-04-14T23:39:14.284Z,5.90
2023-04-14T23:41:47.776Z,6.10
2023-04-14T23:44:16.636Z,5.70
2023-04-14T23:46:45.164Z,5.40
2023-04-14T23:49:23.989Z,5.90
2023-04-14T23:52:01.168Z,5.70
2023-04-14T23:54:31.094Z,7.40
2023-04-14T23:57:01.224Z,5.80
2023-04-14T23:59:29.668Z,6.40
